Archival Weather

Half Moon Bay

Half Moon Bay, California (KHAF)

Report from: Thursday, September 21, 2023 5:55 AM PDT
Current time: Sunday, July 14, 2024 3:21 AM PDT

Current weather – Weather history – Daily summaries
Weather forecast

Present weatherHaze
Temperature13.0°C (55.4°F)
Dew point10.0°C (50.0°F)
Winds 4 kts (2.1 m/s, 4.6 mph) East-Southeast (120°)
Visibility5 mi. (8 km)
Clouds Few clouds 1,800 ft. (549 m)
Altimeter29.86 in.Hg (1011 mB)
Relative humidity82 %
Density altitude7 ft. (2 m)
Remarks Fully automated report
Automated weather observing station with precipitation discriminator
Flight conditions Visual Meteorological Conditions
Raw dataKHAF 211255Z AUTO 12004KT 5SM HZ FEW018 13/10 A2986 RMK AO2
An error has occurred. This application may no longer respond until reloaded. Reload 🗙